Time;durP1;ratioP1;P1;durP2;ratioP2;P2;SDS_P1;SDS_P2;PMS_P1;PMS_P2;Temp;Humidity;BMP_temperature;BMP_pressure;BME280_temperature;BME280_humidity;BME280_pressure;Samples;Min_cycle;Max_cycle;Signal;HPM_P1;HPM_P2
2021/07/24 00:00:16;;;;;;;27.60;13.60;;;;;;;19.98;70.08;100775.91;5024918;28;20046;-42
2021/07/24 00:02:43;;;;;;;23.77;15.50;;;;;;;19.95;69.90;100766.28;5025671;28;20438;-43
2021/07/24 00:05:10;;;;;;;22.02;13.82;;;;;;;19.90;69.78;100763.09;5024410;28;20553;-42
2021/07/24 00:07:37;;;;;;;24.73;15.35;;;;;;;19.87;69.95;100753.50;5022495;28;20067;-42
2021/07/24 00:10:05;;;;;;;21.73;14.98;;;;;;;19.82;69.81;100753.91;5021001;28;20049;-43
2021/07/24 00:12:32;;;;;;;22.83;13.50;;;;;;;19.78;69.73;100755.13;5005532;28;20451;-42
2021/07/24 00:14:59;;;;;;;21.42;13.45;;;;;;;19.72;69.90;100746.34;5025893;28;20077;-41
2021/07/24 00:17:26;;;;;;;25.48;13.00;;;;;;;19.75;69.52;100753.16;5014131;28;20041;-44
2021/07/24 00:19:53;;;;;;;26.45;13.75;;;;;;;19.75;69.53;100753.91;5025552;28;20140;-42
2021/07/24 00:22:20;;;;;;;24.17;13.30;;;;;;;19.73;69.23;100755.53;5024258;28;20515;-42
2021/07/24 00:24:48;;;;;;;20.80;12.90;;;;;;;19.65;69.20;100751.97;5024570;28;20077;-42
2021/07/24 00:27:15;;;;;;;24.98;12.68;;;;;;;19.65;69.15;100749.16;5024183;28;20479;-44
2021/07/24 00:29:43;;;;;;;20.27;13.95;;;;;;;19.64;68.96;100750.38;5024252;28;20056;-42
2021/07/24 00:32:10;;;;;;;20.95;11.60;;;;;;;19.59;69.23;100745.16;5025374;28;20045;-41
2021/07/24 00:34:36;;;;;;;22.05;13.23;;;;;;;19.58;69.31;100740.75;5025145;28;20042;-44
2021/07/24 00:37:03;;;;;;;21.65;13.60;;;;;;;19.54;69.11;100739.94;5024842;28;20045;-43
2021/07/24 00:39:33;;;;;;;25.25;13.23;;;;;;;19.56;69.22;100731.94;5015415;28;20044;-43
2021/07/24 00:42:20;;;;;;;20.83;12.75;;;;;;;19.48;69.42;100730.38;5024420;28;20107;-45
2021/07/24 00:44:51;;;;;;;20.55;12.25;;;;;;;19.53;68.98;100726.31;5024861;28;20550;-42
2021/07/24 00:47:22;;;;;;;17.52;11.88;;;;;;;19.54;69.20;100720.28;5029095;28;20107;-43
2021/07/24 00:49:50;;;;;;;17.00;12.88;;;;;;;19.55;69.02;100724.72;5032103;28;20041;-42
2021/07/24 00:52:17;;;;;;;21.83;12.65;;;;;;;19.51;69.23;100718.31;5012857;28;20050;-42
2021/07/24 00:54:45;;;;;;;15.73;11.23;;;;;;;19.43;68.95;100723.13;5027102;28;20852;-44
2021/07/24 00:57:15;;;;;;;22.35;11.88;;;;;;;19.40;69.34;100717.56;5029495;28;20053;-44
2021/07/24 00:59:45;;;;;;;20.48;12.07;;;;;;;19.33;69.20;100709.09;5024725;28;20034;-42
2021/07/24 01:02:17;;;;;;;;;;;;;;;19.17;69.53;100712.34;5027839;28;20128;-46
2021/07/24 01:04:47;;;;;;;21.33;10.75;;;;;;;19.22;69.30;100711.16;5026563;28;21113;-41
2021/07/24 01:07:15;;;;;;;20.15;12.25;;;;;;;19.19;69.35;100707.16;5028303;28;20073;-47
2021/07/24 01:09:42;;;;;;;15.63;10.75;;;;;;;19.11;69.51;100696.34;5024953;28;20049;-42
2021/07/24 01:12:09;;;;;;;21.40;11.43;;;;;;;19.07;69.41;100695.53;5029161;28;20050;-42
2021/07/24 01:14:36;;;;;;;17.25;12.10;;;;;;;19.04;69.74;100690.72;5013182;28;20431;-44
2021/07/24 01:17:03;;;;;;;23.55;12.98;;;;;;;18.94;69.92;100683.94;5029260;28;20060;-43
2021/07/24 01:19:30;;;;;;;19.65;11.80;;;;;;;18.91;69.91;100684.75;5030177;28;20518;-44
2021/07/24 01:21:57;;;;;;;22.58;12.20;;;;;;;18.90;69.81;100685.16;5029621;28;20049;-43
2021/07/24 01:24:24;;;;;;;25.95;12.23;;;;;;;18.84;70.34;100674.34;5024042;28;20408;-42
2021/07/24 01:26:51;;;;;;;17.90;11.82;;;;;;;18.82;70.46;100676.72;5025273;28;20442;-42
2021/07/24 01:29:20;;;;;;;15.93;11.68;;;;;;;18.81;70.48;100675.16;5012822;28;20142;-43
2021/07/24 01:31:48;;;;;;;18.65;11.25;;;;;;;18.79;70.49;100674.75;5027559;28;20045;-42
2021/07/24 01:34:15;;;;;;;20.77;12.40;;;;;;;18.76;70.40;100661.53;5026456;28;20053;-43
2021/07/24 01:36:42;;;;;;;19.05;11.98;;;;;;;18.75;70.47;100654.31;5029942;28;20053;-42
2021/07/24 01:39:09;;;;;;;20.77;12.60;;;;;;;18.76;70.38;100649.50;5024501;28;20052;-45
2021/07/24 01:41:43;;;;;;;20.63;12.07;;;;;;;18.69;70.86;100646.72;5044992;28;20143;-42
2021/07/24 01:44:10;;;;;;;23.48;12.77;;;;;;;18.65;70.61;100643.91;5032868;28;20057;-43
2021/07/24 01:46:36;;;;;;;19.63;11.07;;;;;;;18.61;70.76;100648.69;5020119;28;20057;-44
2021/07/24 01:55:00;;;;;;;19.13;11.02;;;;;;;18.63;70.71;100640.72;5020315;28;20057;-41
2021/07/24 01:57:30;;;;;;;18.25;11.75;;;;;;;18.59;70.47;100639.09;5027279;28;20045;-41
2021/07/24 02:00:07;;;;;;;17.77;10.63;;;;;;;18.54;70.58;100643.09;5014887;28;20041;-42
2021/07/24 02:02:35;;;;;;;17.40;10.85;;;;;;;18.49;70.83;100635.09;5029482;28;20045;-41
2021/07/24 02:05:05;;;;;;;19.40;11.48;;;;;;;18.47;71.00;100637.53;5027361;28;20045;-42
2021/07/24 02:07:36;;;;;;;28.10;11.77;;;;;;;18.47;71.07;100636.69;5035816;28;20049;-42
2021/07/24 02:10:04;;;;;;;18.85;10.82;;;;;;;18.47;71.15;100637.53;5027530;28;20076;-43
2021/07/24 02:12:31;;;;;;;23.58;12.77;;;;;;;18.45;71.21;100639.91;5026248;28;20060;-42
2021/07/24 02:14:59;;;;;;;16.65;9.82;;;;;;;18.46;70.99;100643.47;5028854;28;20049;-49
2021/07/24 02:17:29;;;;;;;15.13;10.02;;;;;;;18.41;71.19;100644.69;5027497;28;20128;-42
2021/07/24 02:19:58;;;;;;;16.55;10.27;;;;;;;18.40;71.04;100634.66;5026019;28;20768;-42
2021/07/24 02:22:25;;;;;;;24.17;11.77;;;;;;;18.37;71.19;100637.50;5028599;28;20570;-44
2021/07/24 02:24:51;;;;;;;17.15;12.00;;;;;;;18.34;71.26;100639.09;5023951;28;20825;-41
2021/07/24 02:27:18;;;;;;;13.52;9.02;;;;;;;18.31;71.54;100639.88;5021514;28;20057;-41
2021/07/24 02:29:46;;;;;;;18.58;10.65;;;;;;;18.31;71.30;100648.28;5031436;28;20053;-42
2021/07/24 02:32:13;;;;;;;12.25;8.75;;;;;;;18.31;71.66;100655.91;5027907;28;20053;-43
2021/07/24 02:34:40;;;;;;;17.05;9.48;;;;;;;18.33;71.57;100651.50;5023788;28;20041;-42
2021/07/24 02:37:07;;;;;;;18.52;10.70;;;;;;;18.29;71.84;100647.91;5028019;28;20761;-48
2021/07/24 02:39:33;;;;;;;16.38;9.13;;;;;;;18.34;71.71;100641.91;5026220;28;20045;-43
2021/07/24 02:42:00;;;;;;;14.30;9.25;;;;;;;18.33;71.62;100645.88;5028637;28;20041;-42
2021/07/24 02:44:27;;;;;;;17.38;8.65;;;;;;;18.29;71.79;100650.72;5031235;28;20206;-44
2021/07/24 02:46:54;;;;;;;17.95;9.13;;;;;;;18.31;71.66;100648.28;5031929;28;20052;-41
2021/07/24 02:49:20;;;;;;;18.73;9.18;;;;;;;18.31;71.79;100655.91;5026509;28;20466;-52
2021/07/24 02:51:47;;;;;;;15.38;8.68;;;;;;;18.28;71.88;100654.69;5013027;28;20052;-43
2021/07/24 02:54:14;;;;;;;14.82;9.07;;;;;;;18.30;71.79;100649.47;5018059;28;20061;-42
2021/07/24 02:56:41;;;;;;;12.30;7.93;;;;;;;18.23;71.77;100644.69;5006173;28;20079;-42
2021/07/24 02:59:07;;;;;;;14.75;9.35;;;;;;;18.18;72.01;100644.28;5015561;28;20061;-42
2021/07/24 03:01:34;;;;;;;21.52;11.23;;;;;;;18.16;71.89;100638.28;5015621;28;20484;-49
2021/07/24 03:04:01;;;;;;;18.70;10.05;;;;;;;18.07;72.27;100635.06;5024085;28;20045;-45
2021/07/24 03:06:28;;;;;;;18.45;9.82;;;;;;;18.03;72.45;100628.66;5027607;28;20149;-46
2021/07/24 03:08:55;;;;;;;15.20;9.88;;;;;;;18.01;72.33;100636.66;5025760;28;20045;-43
2021/07/24 03:11:21;;;;;;;18.20;9.77;;;;;;;17.98;72.27;100629.84;5011809;28;20054;-51
2021/07/24 03:13:48;;;;;;;13.05;8.70;;;;;;;17.98;72.34;100629.84;5012856;28;20045;-44
2021/07/24 03:16:15;;;;;;;14.85;8.10;;;;;;;17.93;72.25;100624.63;5027224;28;20387;-50
2021/07/24 03:18:42;;;;;;;15.98;8.52;;;;;;;17.88;72.33;100627.84;5021690;28;20506;-43
2021/07/24 03:21:08;;;;;;;16.52;8.25;;;;;;;17.83;72.44;100625.44;5040262;28;20053;-43
2021/07/24 03:23:35;;;;;;;18.55;8.82;;;;;;;17.74;72.52;100611.00;5025693;28;20057;-43
2021/07/24 03:26:07;;;;;;;11.65;8.35;;;;;;;17.71;72.89;100611.00;5022496;28;20128;-44
2021/07/24 03:28:34;;;;;;;14.57;8.95;;;;;;;17.68;72.71;100611.78;5024174;28;20579;-45
2021/07/24 03:31:00;;;;;;;16.42;8.57;;;;;;;17.61;72.76;100604.97;5027121;28;20049;-44
2021/07/24 03:33:27;;;;;;;21.40;9.32;;;;;;;17.61;72.67;100613.38;5026429;28;20180;-46
2021/07/24 03:35:54;;;;;;;13.50;8.77;;;;;;;17.59;72.75;100604.56;5026883;28;20395;-45
2021/07/24 03:38:21;;;;;;;17.75;8.88;;;;;;;17.56;72.71;100604.56;5023386;28;20049;-43
2021/07/24 03:40:48;;;;;;;16.52;9.10;;;;;;;17.57;72.71;100600.56;5026605;28;20045;-45
2021/07/24 03:43:16;;;;;;;14.10;7.72;;;;;;;17.60;72.42;100611.78;5018107;28;20049;-43
2021/07/24 03:45:42;;;;;;;19.67;9.82;;;;;;;17.58;72.48;100614.16;5020649;28;20470;-46
2021/07/24 03:48:09;;;;;;;18.92;9.38;;;;;;;17.57;72.42;100606.16;5027029;28;20099;-43
2021/07/24 03:50:36;;;;;;;22.90;9.05;;;;;;;17.56;72.20;100605.34;5025909;28;20045;-42
2021/07/24 03:53:03;;;;;;;23.25;11.40;;;;;;;17.44;72.47;100605.69;5037970;28;20045;-43
2021/07/24 03:55:30;;;;;;;15.30;9.32;;;;;;;17.42;72.58;100598.91;5024501;28;20046;-45
2021/07/24 03:57:57;;;;;;;16.73;10.23;;;;;;;17.42;72.51;100588.47;5022553;28;20129;-46
2021/07/24 04:00:24;;;;;;;19.67;11.02;;;;;;;17.40;72.39;100585.28;5019467;28;20076;-45
2021/07/24 04:02:52;;;;;;;18.33;10.10;;;;;;;17.39;72.64;100580.09;5021543;28;20046;-46
2021/07/24 04:05:19;;;;;;;18.52;10.93;;;;;;;17.37;72.43;100574.06;5006408;28;20544;-45
2021/07/24 04:07:46;;;;;;;16.83;10.35;;;;;;;17.39;72.38;100572.50;5038306;28;20045;-44
2021/07/24 04:10:13;;;;;;;16.80;10.10;;;;;;;17.43;72.43;100576.09;5023466;28;20888;-44
2021/07/24 04:12:41;;;;;;;12.25;7.95;;;;;;;17.48;72.40;100570.13;5026058;28;20144;-48
2021/07/24 04:15:08;;;;;;;16.27;9.32;;;;;;;17.50;72.25;100573.31;5033840;28;20051;-44
2021/07/24 04:17:35;;;;;;;18.08;9.82;;;;;;;17.49;72.20;100571.72;5022878;28;20482;-43
2021/07/24 04:20:03;;;;;;;19.17;10.90;;;;;;;17.50;72.32;100572.53;5016537;28;20049;-45
2021/07/24 04:22:29;;;;;;;17.95;8.55;;;;;;;17.47;72.34;100574.09;5024475;28;20049;-45
2021/07/24 04:24:56;;;;;;;14.40;10.07;;;;;;;17.48;72.39;100578.50;5020064;28;20060;-46
2021/07/24 04:27:23;;;;;;;15.30;9.00;;;;;;;17.49;72.35;100582.13;5026229;28;20041;-44
2021/07/24 04:29:50;;;;;;;18.85;9.57;;;;;;;17.46;72.22;100578.09;5025846;28;20049;-42
2021/07/24 04:32:17;;;;;;;15.30;9.15;;;;;;;17.45;72.43;100578.50;5008366;28;20133;-48
2021/07/24 04:34:44;;;;;;;16.48;9.60;;;;;;;17.39;72.45;100575.31;5025736;28;20049;-45
2021/07/24 04:37:10;;;;;;;19.65;10.45;;;;;;;17.39;72.45;100572.50;5025525;28;20060;-44
2021/07/24 04:39:37;;;;;;;21.45;10.35;;;;;;;17.36;72.47;100578.88;5024369;28;20430;-45
2021/07/24 04:42:04;;;;;;;23.02;12.52;;;;;;;17.30;72.62;100571.25;5009407;28;20050;-46
2021/07/24 04:44:31;;;;;;;23.58;11.80;;;;;;;17.25;72.73;100566.03;5023670;28;20057;-44
2021/07/24 04:46:57;;;;;;;23.58;13.00;;;;;;;17.23;72.91;100569.25;5025658;28;20037;-46
2021/07/24 04:49:24;;;;;;;25.65;14.57;;;;;;;17.24;72.79;100564.44;5024985;28;20099;-50
2021/07/24 04:51:51;;;;;;;22.63;13.57;;;;;;;17.22;72.73;100573.22;5024907;28;20699;-49
2021/07/24 04:54:18;;;;;;;23.17;14.00;;;;;;;17.22;72.51;100576.03;5021379;28;20467;-45
2021/07/24 04:56:45;;;;;;;24.25;14.40;;;;;;;17.21;72.54;100570.84;5023552;28;20046;-44
2021/07/24 04:59:13;;;;;;;27.00;13.70;;;;;;;17.24;72.28;100582.03;5025020;28;20041;-43
2021/07/24 05:01:40;;;;;;;21.55;14.40;;;;;;;17.27;72.35;100586.03;5028813;28;20410;-43
2021/07/24 05:04:07;;;;;;;21.38;13.65;;;;;;;17.30;72.27;100597.25;5030946;28;20107;-42
2021/07/24 05:06:35;;;;;;;22.10;14.23;;;;;;;17.29;72.23;100601.22;5013143;28;20054;-48
2021/07/24 05:09:06;;;;;;;17.40;12.43;;;;;;;17.34;72.20;100619.66;5015489;28;20632;-42
2021/07/24 05:11:34;;;;;;;17.50;11.13;;;;;;;17.42;72.17;100627.66;5024525;28;20142;-43
2021/07/24 05:14:01;;;;;;;19.80;10.50;;;;;;;17.48;71.95;100631.69;5023307;28;20095;-46
2021/07/24 05:16:29;;;;;;;12.93;8.80;;;;;;;17.53;72.05;100616.53;5023985;28;20133;-47
2021/07/24 05:18:58;;;;;;;14.40;9.45;;;;;;;17.58;72.02;100616.16;5024150;28;20045;-44
2021/07/24 05:21:25;;;;;;;16.85;8.20;;;;;;;17.66;71.87;100619.78;5023251;28;20150;-46
2021/07/24 05:23:52;;;;;;;13.93;8.32;;;;;;;17.63;72.04;100622.16;5024759;28;20055;-44
2021/07/24 05:26:18;;;;;;;15.95;8.40;;;;;;;17.62;71.95;100612.19;5017067;28;20112;-44
2021/07/24 05:28:48;;;;;;;15.00;7.70;;;;;;;17.63;71.93;100622.16;5016767;28;20049;-42
2021/07/24 05:31:19;;;;;;;15.38;7.65;;;;;;;17.71;71.68;100622.19;5020860;28;20743;-47
2021/07/24 05:33:46;;;;;;;18.40;7.60;;;;;;;17.72;71.52;100609.78;5032375;28;20135;-45
2021/07/24 05:36:13;;;;;;;13.23;7.88;;;;;;;17.78;71.37;100605.41;5022656;28;20057;-45
2021/07/24 05:38:40;;;;;;;14.00;6.75;;;;;;;17.79;71.09;100595.81;5027855;28;20045;-47
2021/07/24 05:41:07;;;;;;;13.95;5.57;;;;;;;17.75;70.94;100598.59;5027315;28;20049;-43
2021/07/24 05:43:34;;;;;;;11.02;5.75;;;;;;;17.76;70.80;100593.81;5027059;28;20531;-42
2021/07/24 05:46:01;;;;;;;10.98;6.10;;;;;;;17.77;70.47;100590.59;5028644;28;20045;-43
2021/07/24 05:48:28;;;;;;;9.98;6.10;;;;;;;17.74;70.45;100587.81;5029221;28;20049;-46
2021/07/24 05:50:55;;;;;;;8.40;5.60;;;;;;;17.67;70.61;100596.19;5026028;28;20433;-43
2021/07/24 05:53:22;;;;;;;10.73;5.78;;;;;;;17.68;70.57;100606.19;5026191;28;20046;-45
2021/07/24 05:55:49;;;;;;;11.45;6.45;;;;;;;17.71;70.58;100611.81;5029725;28;20049;-44
2021/07/24 05:58:15;;;;;;;7.35;5.03;;;;;;;17.75;70.29;100618.19;5027147;28;20057;-46
2021/07/24 06:00:42;;;;;;;10.27;5.60;;;;;;;17.82;70.47;100621.00;5038331;28;20156;-45
2021/07/24 06:03:09;;;;;;;12.30;6.53;;;;;;;17.88;70.26;100624.22;5028244;28;20053;-44
2021/07/24 06:05:36;;;;;;;11.68;5.57;;;;;;;17.90;70.06;100633.03;5042704;28;20131;-46
2021/07/24 06:08:03;;;;;;;6.68;4.72;;;;;;;17.90;69.96;100631.03;5025300;28;20053;-44
2021/07/24 06:10:30;;;;;;;8.23;5.25;;;;;;;17.93;69.89;100629.44;5027705;28;20049;-49
2021/07/24 06:12:57;;;;;;;9.23;4.65;;;;;;;17.89;69.68;100617.44;5040167;28;20082;-43
2021/07/24 06:15:24;;;;;;;13.93;5.40;;;;;;;17.91;69.45;100620.63;5026314;28;20037;-44
2021/07/24 06:17:51;;;;;;;10.32;5.45;;;;;;;18.01;69.43;100631.03;5027965;28;20136;-44
2021/07/24 06:20:18;;;;;;;13.43;5.68;;;;;;;18.03;69.33;100629.44;5027896;28;20056;-43
2021/07/24 06:22:45;;;;;;;11.07;4.55;;;;;;;18.03;69.23;100628.66;5025581;28;20042;-44
2021/07/24 06:25:12;;;;;;;10.73;4.75;;;;;;;18.07;69.20;100623.84;5024391;28;20707;-44
2021/07/24 06:27:41;;;;;;;7.82;4.50;;;;;;;18.12;69.14;100617.84;5018772;28;20060;-46
2021/07/24 06:30:11;;;;;;;8.63;4.78;;;;;;;18.16;69.02;100621.47;5029084;28;20477;-50
2021/07/24 06:32:37;;;;;;;7.28;5.00;;;;;;;18.16;68.94;100615.88;5033048;28;20045;-43
2021/07/24 06:35:05;;;;;;;8.43;4.53;;;;;;;18.18;69.01;100613.47;5035564;28;20120;-43
2021/07/24 06:37:31;;;;;;;9.68;4.95;;;;;;;18.17;68.85;100615.47;5027914;28;20046;-48
2021/07/24 06:39:58;;;;;;;16.52;5.28;;;;;;;18.14;69.07;100612.66;5026772;28;20510;-44
2021/07/24 06:42:25;;;;;;;10.20;4.85;;;;;;;18.12;69.32;100626.25;5026621;28;20045;-44
2021/07/24 06:44:53;;;;;;;8.05;5.15;;;;;;;18.17;69.21;100617.44;5021245;28;20045;-45
2021/07/24 06:47:21;;;;;;;8.98;5.28;;;;;;;18.23;69.26;100610.25;5036963;28;20132;-44
2021/07/24 06:49:48;;;;;;;12.07;4.75;;;;;;;18.22;69.38;100609.44;5027524;28;20061;-42
2021/07/24 06:52:15;;;;;;;9.55;4.78;;;;;;;18.28;68.98;100615.47;5027982;28;20057;-43
2021/07/24 06:54:42;;;;;;;9.75;4.72;;;;;;;18.30;68.85;100615.84;5027755;28;20054;-46
2021/07/24 06:57:08;;;;;;;9.65;4.60;;;;;;;18.25;69.08;100625.47;5023054;28;20038;-45
2021/07/24 06:59:35;;;;;;;8.43;4.40;;;;;;;18.25;68.85;100619.06;5026091;28;20045;-46
2021/07/24 07:02:05;;;;;;;11.68;5.50;;;;;;;18.32;68.86;100613.44;5026446;28;20049;-45
2021/07/24 07:04:32;;;;;;;7.78;4.20;;;;;;;18.37;68.70;100615.88;5027354;28;20826;-43
2021/07/24 07:06:59;;;;;;;8.65;4.38;;;;;;;18.32;68.92;100619.06;5036943;28;20099;-45
2021/07/24 07:09:26;;;;;;;6.93;4.70;;;;;;;18.33;68.94;100617.06;5018561;28;20053;-44
2021/07/24 07:11:56;;;;;;;6.28;4.38;;;;;;;18.34;68.89;100630.69;5018363;28;20415;-44
2021/07/24 07:14:24;;;;;;;6.60;4.07;;;;;;;18.42;68.81;100629.47;5027663;28;20055;-43
2021/07/24 07:16:51;;;;;;;13.70;4.30;;;;;;;18.43;68.92;100611.44;5024815;28;20053;-50
2021/07/24 07:19:19;;;;;;;10.60;4.72;;;;;;;18.46;68.50;100619.06;5027073;28;20060;-47
2021/07/24 07:21:46;;;;;;;8.65;4.68;;;;;;;18.47;68.43;100620.69;5025210;28;20048;-44
2021/07/24 07:24:13;;;;;;;9.55;4.63;;;;;;;18.47;68.34;100615.09;5023378;28;20067;-44
2021/07/24 07:26:41;;;;;;;6.13;4.85;;;;;;;18.46;68.20;100624.66;5033202;28;20484;-43
2021/07/24 07:29:08;;;;;;;5.70;3.95;;;;;;;18.43;68.24;100619.84;5009309;28;20049;-44
2021/07/24 07:31:36;;;;;;;5.93;3.78;;;;;;;18.41;68.33;100632.66;5009171;28;20502;-51
2021/07/24 07:34:03;;;;;;;5.57;3.50;;;;;;;18.42;67.91;100629.47;5026062;28;20053;-49
2021/07/24 07:36:31;;;;;;;4.47;3.70;;;;;;;18.45;68.08;100628.69;5034540;28;20052;-44
2021/07/24 07:38:58;;;;;;;6.18;3.42;;;;;;;18.49;67.72;100623.91;5030632;28;20510;-43
2021/07/24 07:41:25;;;;;;;6.57;3.20;;;;;;;18.53;68.19;100616.25;5026052;28;20049;-44
2021/07/24 07:43:52;;;;;;;6.28;3.35;;;;;;;18.65;67.88;100615.88;5011657;28;20522;-46
2021/07/24 07:46:18;;;;;;;6.10;3.80;;;;;;;18.66;67.71;100617.47;5015014;28;20049;-43
2021/07/24 07:48:45;;;;;;;7.30;2.85;;;;;;;18.76;67.69;100627.06;5024555;28;20128;-48
2021/07/24 07:51:12;;;;;;;4.93;2.97;;;;;;;18.89;67.94;100619.81;5015676;28;20049;-45
2021/07/24 07:53:39;;;;;;;7.00;3.53;;;;;;;19.07;68.34;100628.19;5026737;28;20505;-43
2021/07/24 07:56:11;;;;;;;5.10;3.50;;;;;;;19.28;68.33;100625.31;5026604;28;20071;-45
2021/07/24 07:58:38;;;;;;;6.15;4.00;;;;;;;19.39;67.85;100620.47;5027654;28;20053;-44
2021/07/24 08:01:13;;;;;;;4.57;3.30;;;;;;;19.58;67.27;100625.59;5027506;28;20140;-45
2021/07/24 08:03:41;;;;;;;5.47;3.40;;;;;;;19.78;66.97;100615.44;5027084;28;20049;-47
2021/07/24 08:06:08;;;;;;;11.85;4.30;;;;;;;20.00;66.58;100613.31;5025459;28;20476;-44
2021/07/24 08:08:35;;;;;;;5.93;3.92;;;;;;;20.40;66.55;100623.06;5025652;28;20050;-45
2021/07/24 08:11:01;;;;;;;4.80;2.92;;;;;;;20.89;65.65;100616.94;5020176;28;20050;-44
2021/07/24 08:13:28;;;;;;;10.25;3.33;;;;;;;21.12;63.78;100619.97;5006970;28;20169;-45
2021/07/24 08:15:55;;;;;;;6.50;3.05;;;;;;;21.17;62.54;100625.13;5012692;28;20056;-44
2021/07/24 08:18:22;;;;;;;6.40;3.65;;;;;;;21.12;61.16;100628.41;5027402;28;20049;-44
2021/07/24 08:20:49;;;;;;;5.18;3.47;;;;;;;20.88;60.21;100625.81;5008676;28;20620;-44
2021/07/24 08:23:16;;;;;;;2.83;2.53;;;;;;;21.08;60.07;100624.81;5016168;28;20048;-44
2021/07/24 08:25:44;;;;;;;4.43;2.45;;;;;;;21.51;59.07;100627.09;5025303;28;20041;-44
2021/07/24 08:28:11;;;;;;;3.15;2.38;;;;;;;21.42;58.69;100621.22;5023030;28;20616;-45
2021/07/24 08:30:38;;;;;;;6.88;3.10;;;;;;;21.63;58.37;100615.28;5016764;28;20052;-45
2021/07/24 08:33:06;;;;;;;6.90;3.60;;;;;;;22.23;58.31;100606.75;5016652;28;20071;-45
2021/07/24 08:35:33;;;;;;;5.10;2.72;;;;;;;22.84;57.31;100614.97;5022871;28;20644;-44
2021/07/24 08:38:00;;;;;;;4.55;2.83;;;;;;;23.12;56.09;100625.72;5015076;28;20495;-51
2021/07/24 08:40:27;;;;;;;4.20;3.42;;;;;;;23.00;55.04;100626.38;5014998;28;20056;-46
2021/07/24 08:43:02;;;;;;;6.78;3.25;;;;;;;22.95;54.40;100629.69;5016902;28;20240;-47
2021/07/24 08:45:29;;;;;;;4.15;3.10;;;;;;;22.80;54.42;100619.88;5013370;28;20052;-45
2021/07/24 08:47:57;;;;;;;6.22;3.13;;;;;;;22.38;54.11;100622.19;5020461;28;20053;-44
2021/07/24 08:50:24;;;;;;;5.10;3.35;;;;;;;22.19;54.28;100628.56;5019792;28;20136;-44
2021/07/24 08:52:55;;;;;;;4.90;3.08;;;;;;;22.07;53.84;100623.53;5010445;28;20041;-43
2021/07/24 08:55:23;;;;;;;8.95;4.00;;;;;;;21.99;54.15;100616.41;5013457;28;20076;-43
2021/07/24 08:57:54;;;;;;;4.95;3.13;;;;;;;22.14;54.63;100617.75;5031019;28;20136;-45
2021/07/24 09:00:22;;;;;;;5.05;3.20;;;;;;;22.25;54.37;100618.41;5018689;28;20476;-49
2021/07/24 09:02:54;;;;;;;9.15;3.38;;;;;;;22.23;54.38;100615.22;5017899;28;20039;-48
2021/07/24 09:05:21;;;;;;;5.47;3.53;;;;;;;22.42;54.36;100614.47;5024901;28;20046;-47
2021/07/24 09:07:50;;;;;;;6.45;3.72;;;;;;;22.42;54.18;100614.47;5024067;28;20057;-45
2021/07/24 09:10:18;;;;;;;10.55;4.22;;;;;;;22.73;53.63;100603.09;5024947;28;20049;-46
2021/07/24 09:12:48;;;;;;;6.60;4.20;;;;;;;22.60;53.56;100605.72;5025498;28;20034;-48
2021/07/24 09:15:17;;;;;;;4.55;3.72;;;;;;;22.58;52.77;100601.72;5026650;28;20355;-48
2021/07/24 09:17:44;;;;;;;4.82;3.63;;;;;;;22.91;53.05;100612.00;5023132;28;20509;-48
2021/07/24 09:20:12;;;;;;;5.15;4.18;;;;;;;23.54;52.25;100612.75;5026467;28;20068;-45
2021/07/24 09:22:41;;;;;;;6.78;3.95;;;;;;;23.83;51.72;100610.13;5026370;28;20080;-50
2021/07/24 09:25:09;;;;;;;6.22;4.25;;;;;;;23.83;50.99;100616.53;5018614;28;20500;-48
2021/07/24 09:27:38;;;;;;;4.75;4.13;;;;;;;23.48;50.52;100609.66;5008914;28;20041;-45
2021/07/24 09:30:05;;;;;;;6.30;4.35;;;;;;;23.24;51.02;100605.31;5014335;28;20069;-47
2021/07/24 09:32:33;;;;;;;5.30;4.78;;;;;;;22.97;50.96;100615.94;5016108;28;20053;-51
2021/07/24 09:35:00;;;;;;;5.72;4.53;;;;;;;22.97;51.06;100622.38;4993229;28;20583;-50
2021/07/24 09:37:33;;;;;;;8.63;5.53;;;;;;;23.31;50.44;100610.00;5015284;28;20077;-50
2021/07/24 09:40:19;;;;;;;6.38;5.45;;;;;;;24.15;49.72;100619.47;4996393;28;20818;-50
2021/07/24 09:42:46;;;;;;;7.88;6.15;;;;;;;24.58;49.65;100607.88;5010183;28;20160;-53
2021/07/24 09:45:13;;;;;;;7.50;6.43;;;;;;;24.79;48.84;100624.31;4994186;28;20141;-48
2021/07/24 09:47:40;;;;;;;7.75;6.88;;;;;;;24.61;48.23;100611.84;4986444;28;20847;-47
2021/07/24 09:50:17;;;;;;;8.25;5.80;;;;;;;24.64;47.31;100613.78;5007577;28;20045;-45
2021/07/24 09:52:49;;;;;;;9.27;6.70;;;;;;;24.75;47.35;100606.59;5009867;28;20099;-48
2021/07/24 09:55:26;;;;;;;8.82;7.47;;;;;;;25.07;45.91;100594.41;5014173;28;20152;-54
2021/07/24 09:57:57;;;;;;;9.80;6.65;;;;;;;25.25;46.78;100583.38;5013819;28;20041;-50
2021/07/24 10:00:32;;;;;;;7.22;5.95;;;;;;;25.23;46.82;100585.06;4999019;28;20074;-48
2021/07/24 10:03:04;;;;;;;9.93;6.43;;;;;;;24.96;46.93;100582.59;5008713;28;20045;-50
2021/07/24 10:05:34;;;;;;;9.88;7.78;;;;;;;24.16;47.11;100572.16;4999656;28;20483;-46
2021/07/24 10:08:10;;;;;;;8.15;6.07;;;;;;;23.92;47.66;100571.50;5004946;28;20041;-51
2021/07/24 10:10:39;;;;;;;9.07;6.88;;;;;;;23.91;47.98;100567.06;4996633;28;20038;-51
2021/07/24 10:13:14;;;;;;;7.18;6.00;;;;;;;24.25;47.15;100566.69;4987718;28;20061;-51
2021/07/24 10:15:43;;;;;;;8.13;6.90;;;;;;;24.23;47.69;100569.94;4986688;28;20146;-43
2021/07/24 10:18:12;;;;;;;9.25;6.75;;;;;;;23.88;47.95;100578.50;5006906;28;20041;-52
2021/07/24 10:20:43;;;;;;;9.05;6.82;;;;;;;23.55;48.07;100586.09;4996621;28;20052;-46
2021/07/24 10:23:11;;;;;;;11.00;7.35;;;;;;;23.17;48.90;100588.50;5011436;28;20052;-46
2021/07/24 10:25:45;;;;;;;13.95;7.60;;;;;;;22.92;49.44;100585.38;5005336;28;20038;-48
2021/07/24 10:28:14;;;;;;;11.23;7.25;;;;;;;22.83;49.64;100582.31;5006775;28;20049;-48
2021/07/24 10:30:43;;;;;;;7.93;7.00;;;;;;;22.88;49.69;100584.63;5007645;28;20112;-44
2021/07/24 10:33:11;;;;;;;9.68;6.63;;;;;;;22.78;49.77;100592.09;4994869;28;20054;-45
2021/07/24 10:35:43;;;;;;;8.13;6.15;;;;;;;22.54;49.91;100595.34;5001845;28;20484;-45
2021/07/24 10:38:32;;;;;;;8.90;5.70;;;;;;;22.77;50.37;100586.91;4999190;28;20050;-48
2021/07/24 10:41:21;;;;;;;7.45;6.53;;;;;;;23.06;49.49;100595.59;4992051;28;20050;-46
2021/07/24 10:44:01;;;;;;;7.65;5.78;;;;;;;22.89;49.89;100597.53;5005932;28;20049;-46
2021/07/24 10:46:43;;;;;;;9.02;5.85;;;;;;;22.68;49.63;100601.56;4992708;28;20459;-44
2021/07/24 10:49:22;;;;;;;11.38;6.13;;;;;;;22.60;50.41;100596.44;5011955;28;20703;-44
2021/07/24 10:52:09;;;;;;;11.73;6.50;;;;;;;22.68;50.47;100590.28;4996528;28;20616;-44
2021/07/24 10:54:51;;;;;;;9.32;5.57;;;;;;;22.67;50.47;100587.88;4999601;28;20058;-44
2021/07/24 10:57:43;;;;;;;8.93;5.70;;;;;;;22.63;50.47;100589.97;4995276;28;20042;-49
2021/07/24 11:00:31;;;;;;;9.25;5.97;;;;;;;22.54;50.55;100579.22;4993996;28;20057;-49
2021/07/24 11:02:57;;;;;;;8.00;7.07;;;;;;;22.60;50.88;100587.97;4995261;28;20041;-47
2021/07/24 11:05:38;;;;;;;11.25;6.45;;;;;;;22.50;50.95;100583.31;5012784;28;20083;-46
2021/07/24 11:08:04;;;;;;;8.98;7.15;;;;;;;22.39;51.16;100583.50;4992172;28;20050;-45
2021/07/24 11:10:32;;;;;;;7.50;5.72;;;;;;;22.65;51.21;100584.69;5015558;28;20446;-46
2021/07/24 11:13:00;;;;;;;8.98;5.90;;;;;;;22.72;51.32;100578.91;5005960;28;20049;-47
2021/07/24 11:15:38;;;;;;;7.05;5.90;;;;;;;22.81;50.51;100574.28;5001156;28;20042;-41
2021/07/24 11:18:27;;;;;;;8.50;5.85;;;;;;;22.93;50.51;100584.13;5008976;28;20056;-42
2021/07/24 11:20:54;;;;;;;10.38;5.88;;;;;;;23.11;50.41;100590.25;5007898;28;20042;-41
2021/07/24 11:23:24;;;;;;;9.40;6.77;;;;;;;23.20;50.17;100590.44;5014714;28;20109;-42
2021/07/24 11:26:00;;;;;;;8.40;6.25;;;;;;;23.01;49.20;100577.91;4995164;28;20056;-40
2021/07/24 11:28:26;;;;;;;7.88;5.95;;;;;;;22.84;50.28;100586.75;4989184;28;20073;-45
2021/07/24 11:30:58;;;;;;;7.20;6.10;;;;;;;22.72;50.31;100579.69;4993240;28;20046;-40